createdAt,value
2018-09-20T00:01:26.666Z,5.00
2018-09-20T00:03:54.906Z,5.60
2018-09-20T00:06:23.152Z,5.07
2018-09-20T00:08:51.452Z,5.10
2018-09-20T00:11:19.706Z,5.57
2018-09-20T00:13:47.935Z,4.60
2018-09-20T00:16:18.452Z,5.47
2018-09-20T00:18:46.716Z,5.00
2018-09-20T00:21:14.928Z,5.23
2018-09-20T00:23:42.993Z,7.67
2018-09-20T00:26:11.087Z,5.10
2018-09-20T00:28:39.172Z,5.83
2018-09-20T00:31:07.268Z,5.77
2018-09-20T00:33:35.337Z,5.90
2018-09-20T00:36:03.432Z,5.03
2018-09-20T00:38:31.495Z,5.30
2018-09-20T00:40:59.581Z,5.20
2018-09-20T00:43:27.649Z,5.90
2018-09-20T00:45:55.734Z,5.63
2018-09-20T00:48:23.824Z,5.67
2018-09-20T00:50:51.899Z,5.40
2018-09-20T00:53:20.016Z,5.70
2018-09-20T00:55:48.111Z,5.97
2018-09-20T00:58:16.184Z,6.03
2018-09-20T01:00:44.266Z,6.43
2018-09-20T01:03:12.341Z,5.50
2018-09-20T01:05:40.531Z,6.30
2018-09-20T01:08:08.679Z,5.87
2018-09-20T01:10:36.771Z,7.20
2018-09-20T01:13:04.856Z,6.00
2018-09-20T01:15:33.111Z,6.07
2018-09-20T01:18:01.195Z,4.90
2018-09-20T01:20:29.279Z,6.10
2018-09-20T01:22:57.356Z,5.83
2018-09-20T01:25:25.423Z,6.10
2018-09-20T01:27:53.492Z,6.67
2018-09-20T01:30:21.613Z,6.70
2018-09-20T01:32:49.757Z,5.67
2018-09-20T01:35:17.836Z,6.40
2018-09-20T01:37:45.923Z,6.33
2018-09-20T01:40:14.035Z,6.27
2018-09-20T01:42:42.123Z,6.03
2018-09-20T01:45:10.231Z,6.87
2018-09-20T01:47:38.384Z,5.93
2018-09-20T01:50:06.635Z,6.47
2018-09-20T01:52:34.725Z,6.30
2018-09-20T01:55:02.960Z,6.07
2018-09-20T01:57:31.031Z,5.47
2018-09-20T01:59:59.139Z,5.87
2018-09-20T02:02:27.280Z,6.43
2018-09-20T02:04:55.433Z,6.43
2018-09-20T02:07:23.542Z,6.27
2018-09-20T02:09:51.614Z,6.20
2018-09-20T02:12:19.692Z,7.17
2018-09-20T02:14:47.783Z,6.67
2018-09-20T02:17:15.979Z,7.30
2018-09-20T02:19:44.052Z,6.87
2018-09-20T02:22:12.136Z,6.57
2018-09-20T02:24:40.205Z,6.17
2018-09-20T02:27:08.308Z,5.90
2018-09-20T02:29:36.389Z,6.47
2018-09-20T02:32:04.508Z,6.60
2018-09-20T02:34:32.591Z,6.77
2018-09-20T02:37:00.684Z,7.00
2018-09-20T02:39:28.765Z,6.70
2018-09-20T02:41:56.867Z,6.80
2018-09-20T02:44:24.949Z,6.90
2018-09-20T02:46:59.402Z,6.67
2018-09-20T02:49:27.514Z,6.53
2018-09-20T02:51:55.609Z,7.40
2018-09-20T02:54:23.691Z,6.50
2018-09-20T02:56:51.772Z,6.30
2018-09-20T02:59:19.855Z,6.00
2018-09-20T03:01:48.041Z,6.70
2018-09-20T03:04:16.181Z,7.07
2018-09-20T03:06:44.241Z,6.73
2018-09-20T03:09:12.517Z,6.87
2018-09-20T03:11:40.604Z,7.60
2018-09-20T03:14:08.822Z,7.07
2018-09-20T03:16:36.928Z,7.07
2018-09-20T03:19:05.356Z,7.03
2018-09-20T03:21:33.425Z,6.47
2018-09-20T03:24:01.537Z,6.70
2018-09-20T03:26:29.666Z,7.47
2018-09-20T03:28:57.728Z,7.20
2018-09-20T03:31:25.847Z,6.77
2018-09-20T03:33:54.089Z,6.27
2018-09-20T03:36:22.171Z,7.37
2018-09-20T03:38:50.256Z,7.03
2018-09-20T03:41:18.359Z,7.93
2018-09-20T03:43:53.223Z,6.87
2018-09-20T03:46:21.356Z,8.00
2018-09-20T03:48:49.516Z,8.30
2018-09-20T03:51:17.595Z,6.90
2018-09-20T03:53:45.689Z,7.50
2018-09-20T03:56:13.760Z,7.00
2018-09-20T03:58:41.867Z,7.97
2018-09-20T04:01:09.962Z,7.17
2018-09-20T04:03:38.070Z,6.50
2018-09-20T04:06:06.213Z,6.90
2018-09-20T04:08:34.335Z,8.50
2018-09-20T04:11:02.419Z,7.40
2018-09-20T04:13:30.495Z,7.60
2018-09-20T04:15:58.769Z,7.10
2018-09-20T04:18:26.885Z,7.40
2018-09-20T04:20:54.987Z,7.37
2018-09-20T04:23:23.083Z,7.10
2018-09-20T04:25:51.155Z,7.20
2018-09-20T04:28:19.263Z,7.93
2018-09-20T04:30:47.350Z,7.33
2018-09-20T04:33:15.536Z,6.70
2018-09-20T04:35:43.615Z,8.00
2018-09-20T04:38:11.692Z,7.17
2018-09-20T04:40:39.750Z,8.33
2018-09-20T04:43:07.843Z,7.50
2018-09-20T04:45:36.070Z,8.07
2018-09-20T04:48:04.300Z,7.03
2018-09-20T04:50:32.391Z,8.10
2018-09-20T04:53:00.486Z,7.83
2018-09-20T04:55:28.564Z,6.90
2018-09-20T04:57:56.629Z,7.37
2018-09-20T05:00:24.703Z,7.70
2018-09-20T05:02:52.816Z,7.83
2018-09-20T05:05:20.924Z,7.60
2018-09-20T05:07:48.996Z,7.70
2018-09-20T05:10:17.081Z,7.30
2018-09-20T05:12:45.182Z,7.47
2018-09-20T05:15:13.274Z,7.20
2018-09-20T05:17:41.351Z,7.67
2018-09-20T05:20:09.474Z,7.70
2018-09-20T05:22:37.539Z,8.17
2018-09-20T05:25:05.640Z,8.43
2018-09-20T05:27:33.896Z,7.87
2018-09-20T05:30:02.019Z,7.63
2018-09-20T05:32:30.149Z,8.17
2018-09-20T05:34:58.192Z,7.93
2018-09-20T05:37:26.249Z,8.10
2018-09-20T05:39:54.320Z,8.40
2018-09-20T05:42:22.438Z,8.30
2018-09-20T05:44:50.507Z,8.20
2018-09-20T05:47:18.584Z,8.23
2018-09-20T05:49:46.648Z,8.73
2018-09-20T05:52:14.752Z,9.03
2018-09-20T05:54:42.843Z,8.80
2018-09-20T05:57:10.961Z,7.33
2018-09-20T05:59:40.364Z,7.88
2018-09-20T06:02:08.539Z,8.60
2018-09-20T06:04:36.647Z,9.93
2018-09-20T06:07:04.787Z,9.53
2018-09-20T06:09:32.861Z,8.53
2018-09-20T06:12:01.015Z,8.50
2018-09-20T06:14:29.091Z,9.97
2018-09-20T06:16:57.175Z,9.27
2018-09-20T06:19:25.235Z,9.00
2018-09-20T06:21:53.371Z,9.63
2018-09-20T06:24:21.424Z,8.90
2018-09-20T06:26:49.505Z,9.83
2018-09-20T06:29:17.574Z,10.13
2018-09-20T06:31:45.669Z,9.47
2018-09-20T06:34:13.790Z,10.27
2018-09-20T06:36:42.089Z,11.63
2018-09-20T06:39:11.770Z,10.80
2018-09-20T06:41:39.963Z,10.83
2018-09-20T06:44:08.046Z,11.17
2018-09-20T06:46:36.183Z,11.87
2018-09-20T06:49:04.423Z,12.73
2018-09-20T06:51:32.535Z,11.30
2018-09-20T06:54:00.684Z,11.30
2018-09-20T06:56:28.866Z,11.27
2018-09-20T06:58:56.915Z,11.60
2018-09-20T07:01:24.992Z,12.07
2018-09-20T07:06:27.618Z,12.20
2018-09-20T07:08:55.675Z,13.23
2018-09-20T07:11:23.754Z,12.10
2018-09-20T07:13:51.832Z,11.87
2018-09-20T07:16:19.927Z,10.70
2018-09-20T07:18:48.055Z,11.73
2018-09-20T07:21:16.135Z,11.60
2018-09-20T07:23:44.221Z,11.60
2018-09-20T07:26:12.291Z,10.73
2018-09-20T07:28:40.376Z,10.20
2018-09-20T07:31:08.480Z,9.63
2018-09-20T07:33:36.552Z,9.77
2018-09-20T07:36:04.640Z,9.60
2018-09-20T07:38:32.730Z,8.53
2018-09-20T07:41:00.807Z,8.30
2018-09-20T07:43:28.975Z,8.00
2018-09-20T07:45:56.974Z,7.90
2018-09-20T07:48:25.066Z,8.00
2018-09-20T07:50:53.420Z,7.40
2018-09-20T07:53:21.561Z,7.47
2018-09-20T07:55:49.647Z,7.30
2018-09-20T07:58:17.732Z,8.37
2018-09-20T08:00:45.832Z,7.40
2018-09-20T08:03:13.904Z,7.17
2018-09-20T08:05:42.009Z,7.37
2018-09-20T08:08:10.095Z,6.70
2018-09-20T08:10:38.168Z,7.30
2018-09-20T08:13:06.259Z,6.27
2018-09-20T08:15:34.365Z,7.20
2018-09-20T08:18:02.493Z,7.97
2018-09-20T08:20:30.688Z,6.07
2018-09-20T08:22:58.784Z,5.63
2018-09-20T08:25:26.880Z,6.17
2018-09-20T08:27:55.011Z,6.47
2018-09-20T08:30:23.050Z,6.20
2018-09-20T08:32:51.176Z,6.63
2018-09-20T08:35:19.287Z,6.70
2018-09-20T08:37:47.787Z,6.40
2018-09-20T08:40:15.776Z,5.63
2018-09-20T08:42:43.854Z,4.97
2018-09-20T08:45:11.923Z,4.77
2018-09-20T08:47:40.000Z,6.00
2018-09-20T08:50:08.265Z,5.97
2018-09-20T08:52:36.385Z,6.10
2018-09-20T08:55:04.443Z,6.17
2018-09-20T08:57:38.116Z,6.60
2018-09-20T09:00:06.699Z,6.17
2018-09-20T09:02:34.820Z,6.50
2018-09-20T09:05:02.926Z,6.63
2018-09-20T09:07:31.014Z,5.77
2018-09-20T09:09:59.073Z,5.50
2018-09-20T09:12:27.128Z,4.77
2018-09-20T09:14:55.264Z,5.50
2018-09-20T09:17:23.372Z,5.50
2018-09-20T09:19:51.456Z,4.17
2018-09-20T09:22:19.527Z,5.20
2018-09-20T09:24:47.606Z,4.90
2018-09-20T09:27:15.696Z,5.30
2018-09-20T09:29:43.785Z,5.07
2018-09-20T09:32:11.866Z,4.77
2018-09-20T09:34:40.006Z,4.40
2018-09-20T09:37:08.082Z,4.10
2018-09-20T09:39:36.151Z,4.37
2018-09-20T09:42:04.228Z,5.10
2018-09-20T09:44:32.294Z,4.67
2018-09-20T09:47:00.384Z,4.57
2018-09-20T09:49:28.460Z,4.70
2018-09-20T09:51:56.551Z,4.20
2018-09-20T09:54:24.672Z,3.70
2018-09-20T09:56:52.720Z,5.07
2018-09-20T09:59:20.800Z,4.40
2018-09-20T10:01:48.980Z,4.80
2018-09-20T10:04:17.055Z,4.40
2018-09-20T10:06:45.140Z,4.50
2018-09-20T10:09:13.227Z,5.20
2018-09-20T10:11:41.323Z,4.30
2018-09-20T10:14:16.060Z,4.33
2018-09-20T10:16:44.140Z,3.97
2018-09-20T10:19:12.243Z,4.83
2018-09-20T10:21:40.334Z,4.07
2018-09-20T10:24:08.408Z,3.60
2018-09-20T10:26:36.488Z,4.30
2018-09-20T10:29:04.560Z,4.80
2018-09-20T10:31:32.872Z,4.70
2018-09-20T10:34:00.919Z,3.90
2018-09-20T10:36:28.969Z,4.00
2018-09-20T10:38:57.035Z,3.77
2018-09-20T10:41:25.132Z,4.10
2018-09-20T10:43:53.223Z,4.47
2018-09-20T10:46:21.319Z,3.90
2018-09-20T10:48:49.413Z,3.83
2018-09-20T10:51:17.531Z,4.03
2018-09-20T10:53:45.631Z,3.40
2018-09-20T10:56:13.692Z,4.00
2018-09-20T10:58:41.824Z,3.43
2018-09-20T11:01:09.948Z,3.47
2018-09-20T11:03:38.076Z,3.53
2018-09-20T11:06:06.295Z,3.70
2018-09-20T11:08:34.435Z,4.33
2018-09-20T11:11:02.604Z,4.00
2018-09-20T11:13:30.672Z,3.57
2018-09-20T11:15:58.832Z,3.50
2018-09-20T11:18:26.983Z,3.83
2018-09-20T11:20:55.123Z,4.43
2018-09-20T11:23:23.221Z,3.30
2018-09-20T11:25:51.373Z,4.87
2018-09-20T11:28:19.435Z,4.20
2018-09-20T11:30:47.560Z,3.30
2018-09-20T11:33:15.675Z,3.93
2018-09-20T11:35:43.774Z,4.70
2018-09-20T11:38:11.904Z,4.30
2018-09-20T11:40:40.033Z,3.83
2018-09-20T11:43:08.137Z,4.20
2018-09-20T11:45:36.296Z,2.73
2018-09-20T11:48:04.417Z,3.00
2018-09-20T11:50:32.533Z,2.57
2018-09-20T11:53:00.674Z,3.17
2018-09-20T11:55:28.791Z,3.13
2018-09-20T11:57:56.904Z,3.13
2018-09-20T12:00:24.972Z,2.47
2018-09-20T12:02:53.441Z,2.80
2018-09-20T12:05:22.092Z,2.43
2018-09-20T12:07:50.171Z,3.17
2018-09-20T12:10:19.048Z,3.20
2018-09-20T12:12:47.316Z,5.50
2018-09-20T12:15:15.424Z,2.97
2018-09-20T12:17:43.531Z,2.90
2018-09-20T12:20:11.611Z,3.20
2018-09-20T12:22:39.705Z,2.60
2018-09-20T12:25:07.787Z,3.53
2018-09-20T12:27:35.879Z,3.00
2018-09-20T12:30:04.284Z,2.80
2018-09-20T12:32:32.405Z,2.53
2018-09-20T12:35:00.475Z,2.93
2018-09-20T12:37:33.847Z,2.90
2018-09-20T12:40:01.979Z,3.00
2018-09-20T12:42:30.119Z,2.83
2018-09-20T12:44:58.230Z,2.90
2018-09-20T12:47:26.335Z,3.00
2018-09-20T12:49:54.400Z,2.73
2018-09-20T12:52:22.491Z,2.87
2018-09-20T12:54:50.565Z,2.80
2018-09-20T12:57:18.664Z,2.90
2018-09-20T12:59:46.734Z,3.07
2018-09-20T13:02:14.880Z,2.53
2018-09-20T13:04:42.964Z,3.30
2018-09-20T13:07:11.048Z,2.90
2018-09-20T13:09:39.123Z,3.30
2018-09-20T13:12:07.205Z,2.77
2018-09-20T13:14:35.286Z,2.60
2018-09-20T13:17:03.412Z,3.20
2018-09-20T13:19:31.489Z,3.70
2018-09-20T13:21:59.569Z,3.70
2018-09-20T13:24:27.655Z,2.83
2018-09-20T13:26:55.748Z,3.37
2018-09-20T13:29:30.564Z,3.73
2018-09-20T13:31:58.655Z,3.37
2018-09-20T13:34:26.727Z,3.57
2018-09-20T13:36:54.829Z,3.47
2018-09-20T13:39:22.913Z,3.70
2018-09-20T13:41:50.991Z,3.90
2018-09-20T13:44:19.078Z,3.30
2018-09-20T13:46:47.175Z,3.00
2018-09-20T13:49:15.254Z,2.80
2018-09-20T13:51:43.400Z,3.50
2018-09-20T13:54:11.447Z,3.50
2018-09-20T13:56:39.515Z,3.13
2018-09-20T13:59:07.576Z,3.20
2018-09-20T14:01:35.644Z,3.77
2018-09-20T14:04:03.711Z,3.57
2018-09-20T14:06:31.815Z,3.27
2018-09-20T14:08:59.885Z,3.17
2018-09-20T14:11:27.951Z,3.13
2018-09-20T14:13:56.010Z,4.03
2018-09-20T14:16:24.387Z,3.23
2018-09-20T14:18:52.465Z,3.73
2018-09-20T14:21:20.531Z,3.87
2018-09-20T14:23:48.705Z,3.23
2018-09-20T14:26:16.728Z,3.60
2018-09-20T14:28:44.881Z,3.57
2018-09-20T14:31:12.967Z,3.80
2018-09-20T14:33:41.030Z,3.40
2018-09-20T14:36:09.092Z,3.80
2018-09-20T14:38:37.187Z,3.33
2018-09-20T14:41:05.283Z,3.87
2018-09-20T14:43:33.346Z,3.67
2018-09-20T14:46:01.420Z,4.20
2018-09-20T14:48:29.487Z,3.67
2018-09-20T14:50:57.596Z,3.27
2018-09-20T14:53:25.682Z,4.23
2018-09-20T14:55:53.775Z,3.73
2018-09-20T14:58:21.838Z,3.40
2018-09-20T15:00:50.107Z,3.50
2018-09-20T15:03:18.732Z,3.80
2018-09-20T15:05:46.799Z,3.30
2018-09-20T15:08:14.909Z,3.60
2018-09-20T15:10:42.982Z,2.87
2018-09-20T15:13:11.036Z,3.27
2018-09-20T15:15:39.139Z,3.73
2018-09-20T15:18:07.207Z,3.07
2018-09-20T15:20:35.298Z,3.60
2018-09-20T15:23:03.379Z,3.80
2018-09-20T15:25:31.456Z,3.17
2018-09-20T15:27:59.519Z,3.80
2018-09-20T15:30:27.620Z,3.60
2018-09-20T15:32:55.715Z,3.90
2018-09-20T15:35:23.789Z,4.30
2018-09-20T15:37:51.862Z,3.67
2018-09-20T15:40:19.913Z,3.73
2018-09-20T15:42:47.985Z,3.60
2018-09-20T15:45:16.047Z,3.37
2018-09-20T15:47:44.475Z,3.37
2018-09-20T15:50:12.552Z,3.03
2018-09-20T15:52:40.646Z,4.10
2018-09-20T15:55:08.708Z,3.27
2018-09-20T15:57:36.788Z,3.90
2018-09-20T16:00:05.332Z,3.77
2018-09-20T16:02:33.395Z,3.33
2018-09-20T16:05:01.566Z,3.27
2018-09-20T16:07:29.716Z,4.13
2018-09-20T16:09:57.804Z,4.07
2018-09-20T16:12:25.887Z,3.43
2018-09-20T16:14:54.013Z,3.90
2018-09-20T16:17:22.169Z,4.23
2018-09-20T16:19:50.230Z,3.27
2018-09-20T16:22:18.323Z,3.60
2018-09-20T16:24:46.411Z,4.20
2018-09-20T16:27:14.512Z,3.37
2018-09-20T16:30:21.768Z,3.33
2018-09-20T16:33:44.598Z,4.00
2018-09-20T16:36:24.063Z,3.90
2018-09-20T16:38:59.869Z,3.90
2018-09-20T16:41:36.751Z,4.70
2018-09-20T16:44:07.182Z,3.60
2018-09-20T16:46:36.721Z,3.80
2018-09-20T16:49:06.707Z,3.80
2018-09-20T16:51:37.607Z,3.53
2018-09-20T16:54:06.713Z,3.70
2018-09-20T16:56:35.359Z,3.37
2018-09-20T16:59:04.412Z,4.37
2018-09-20T17:01:35.170Z,3.40
2018-09-20T17:04:04.538Z,3.97
2018-09-20T17:06:35.948Z,3.40
2018-09-20T17:09:07.790Z,3.60
2018-09-20T17:11:39.675Z,3.27
2018-09-20T17:14:23.224Z,3.53
2018-09-20T17:17:00.052Z,3.30
2018-09-20T17:19:32.186Z,4.20
2018-09-20T17:22:02.173Z,3.37
2018-09-20T17:24:30.231Z,3.70
2018-09-20T17:26:58.739Z,3.50
2018-09-20T17:29:26.855Z,3.23
2018-09-20T17:31:55.003Z,4.70
2018-09-20T17:34:23.243Z,3.43
2018-09-20T17:36:51.868Z,3.70
2018-09-20T17:39:22.474Z,3.30
2018-09-20T17:41:51.180Z,3.80
2018-09-20T17:44:25.948Z,4.60
2018-09-20T17:46:54.075Z,4.40
2018-09-20T17:49:25.106Z,4.37
2018-09-20T17:54:41.841Z,4.13
2018-09-20T17:59:29.819Z,4.40
2018-09-20T18:04:39.673Z,3.40
2018-09-20T18:07:20.845Z,4.23
2018-09-20T18:09:57.772Z,3.80
2018-09-20T18:12:30.367Z,4.00
2018-09-20T18:15:04.758Z,4.00
2018-09-20T18:17:34.665Z,3.30
2018-09-20T18:20:06.882Z,4.27
2018-09-20T18:22:37.775Z,4.00
2018-09-20T18:25:09.049Z,4.33
2018-09-20T18:27:42.044Z,5.47
2018-09-20T18:30:12.492Z,4.67
2018-09-20T18:32:45.897Z,5.30
2018-09-20T18:35:19.708Z,4.30
2018-09-20T18:37:52.449Z,4.00
2018-09-20T18:40:24.667Z,5.50
2018-09-20T18:43:00.973Z,4.30
2018-09-20T18:45:39.141Z,4.83
2018-09-20T18:48:18.095Z,4.40
2018-09-20T18:50:47.886Z,5.20
2018-09-20T18:53:24.792Z,4.90
2018-09-20T18:56:00.253Z,4.33
2018-09-20T18:58:37.427Z,5.93
2018-09-20T19:01:16.348Z,4.80
2018-09-20T19:04:01.592Z,4.80
2018-09-20T19:06:31.400Z,5.37
2018-09-20T19:09:11.828Z,4.43
2018-09-20T19:11:42.565Z,4.20
2018-09-20T19:14:35.060Z,4.23
2018-09-20T19:20:05.834Z,5.20
2018-09-20T19:22:46.844Z,4.47
2018-09-20T19:25:35.101Z,4.30
2018-09-20T19:28:20.345Z,4.40
2018-09-20T19:30:58.271Z,4.03
2018-09-20T19:33:31.311Z,3.83
2018-09-20T19:36:13.792Z,4.50
2018-09-20T19:39:11.159Z,4.23
2018-09-20T19:46:14.192Z,4.70
2018-09-20T19:49:12.715Z,4.10
2018-09-20T19:55:39.252Z,4.40
2018-09-20T19:58:17.759Z,4.40
2018-09-20T20:03:55.352Z,3.83
2018-09-20T20:06:29.018Z,4.73
2018-09-20T20:09:30.742Z,3.77
2018-09-20T20:12:01.536Z,4.10
2018-09-20T20:20:26.080Z,3.80
2018-09-20T20:34:08.503Z,4.57
2018-09-20T20:46:52.482Z,5.93
2018-09-20T20:52:01.325Z,8.43
2018-09-20T20:54:38.148Z,7.70
2018-09-20T21:05:44.923Z,6.83
2018-09-20T21:08:36.785Z,6.63
2018-09-20T21:11:26.320Z,6.60
2018-09-20T21:13:54.526Z,7.00
2018-09-20T21:16:22.668Z,6.70
2018-09-20T21:18:50.895Z,5.83
2018-09-20T21:21:19.198Z,6.90
2018-09-20T21:23:47.384Z,6.30
2018-09-20T21:26:16.002Z,7.00
2018-09-20T21:28:44.276Z,6.93
2018-09-20T21:31:12.461Z,6.97
2018-09-20T21:33:40.818Z,7.50
2018-09-20T21:36:09.675Z,7.47
2018-09-20T21:38:39.092Z,6.63
2018-09-20T21:41:07.380Z,6.07
2018-09-20T21:43:35.588Z,7.20
2018-09-20T21:46:03.942Z,7.00
2018-09-20T21:48:32.318Z,7.53
2018-09-20T21:51:01.002Z,6.00
2018-09-20T21:53:29.189Z,6.37
2018-09-20T21:55:57.377Z,5.83
2018-09-20T21:58:25.552Z,5.07
2018-09-20T22:01:02.420Z,6.20
2018-09-20T22:03:31.276Z,4.77
2018-09-20T22:05:59.459Z,4.30
2018-09-20T22:08:27.644Z,5.03
2018-09-20T22:10:56.001Z,5.37
2018-09-20T22:13:24.479Z,5.97
2018-09-20T22:15:52.776Z,7.13
2018-09-20T22:18:21.020Z,5.63
2018-09-20T22:20:49.217Z,6.23
2018-09-20T22:23:17.459Z,7.03
2018-09-20T22:25:45.719Z,6.33
2018-09-20T22:28:13.932Z,6.67
2018-09-20T22:30:42.173Z,5.90
2018-09-20T22:33:10.374Z,7.47
2018-09-20T22:35:38.633Z,6.23
2018-09-20T22:38:06.865Z,5.80
2018-09-20T22:40:34.923Z,5.77
2018-09-20T22:43:03.003Z,5.10
2018-09-20T22:45:31.069Z,6.20
2018-09-20T22:47:59.169Z,6.70
2018-09-20T22:50:27.281Z,6.40
2018-09-20T22:52:55.348Z,6.37
2018-09-20T22:55:23.446Z,6.10
2018-09-20T22:57:51.507Z,6.03
2018-09-20T23:00:23.948Z,6.50
2018-09-20T23:02:53.144Z,5.60
2018-09-20T23:05:21.249Z,5.93
2018-09-20T23:07:49.318Z,6.40
2018-09-20T23:10:17.419Z,6.43
2018-09-20T23:12:46.004Z,6.10
2018-09-20T23:15:14.101Z,6.30
2018-09-20T23:17:42.150Z,6.57
2018-09-20T23:20:10.220Z,7.67
2018-09-20T23:22:38.288Z,7.87
2018-09-20T23:25:06.440Z,9.80
2018-09-20T23:27:34.501Z,7.63
2018-09-20T23:30:02.579Z,6.20
2018-09-20T23:32:30.675Z,6.43
2018-09-20T23:34:58.766Z,7.00
2018-09-20T23:37:26.827Z,6.27
2018-09-20T23:39:54.883Z,6.43
2018-09-20T23:42:22.950Z,6.20
2018-09-20T23:44:51.015Z,6.13
2018-09-20T23:47:19.068Z,6.13
2018-09-20T23:49:47.151Z,6.53
2018-09-20T23:52:15.211Z,6.30
2018-09-20T23:54:43.293Z,5.93
2018-09-20T23:57:11.370Z,6.13
2018-09-20T23:59:39.451Z,6.30
